createdAt,value
2023-04-21T00:00:52.150Z,23.49
2023-04-21T00:01:52.192Z,23.50
2023-04-21T00:02:52.331Z,23.50
2023-04-21T00:03:52.342Z,23.49
2023-04-21T00:04:52.380Z,23.50
2023-04-21T00:05:52.349Z,23.50
2023-04-21T00:06:52.361Z,23.50
2023-04-21T00:07:52.399Z,23.52
2023-04-21T00:08:52.440Z,23.50
2023-04-21T00:09:52.481Z,23.50
2023-04-21T00:10:52.508Z,23.48
2023-04-21T00:11:52.550Z,23.49
2023-04-21T00:12:52.593Z,23.53
2023-04-21T00:13:52.616Z,23.48
2023-04-21T00:14:52.675Z,23.50
2023-04-21T00:15:52.764Z,23.49
2023-04-21T00:16:52.794Z,23.49
2023-04-21T00:17:52.842Z,23.52
2023-04-21T00:18:52.805Z,23.49
2023-04-21T00:19:52.838Z,23.52
2023-04-21T00:20:52.880Z,23.50
2023-04-21T00:21:52.916Z,23.50
2023-04-21T00:22:52.945Z,23.49
2023-04-21T00:23:52.967Z,23.50
2023-04-21T00:24:53.003Z,23.49
2023-04-21T00:25:53.022Z,23.49
2023-04-21T00:26:53.103Z,23.50
2023-04-21T00:27:53.103Z,23.49
2023-04-21T00:28:53.130Z,23.52
2023-04-21T00:29:53.172Z,23.50
2023-04-21T00:30:53.199Z,23.48
2023-04-21T00:31:53.318Z,23.48
2023-04-21T00:32:53.321Z,23.52
2023-04-21T00:33:53.320Z,23.50
2023-04-21T00:34:53.353Z,23.50
2023-04-21T00:35:53.388Z,23.49
2023-04-21T00:36:53.411Z,23.50
2023-04-21T00:37:53.445Z,23.50
2023-04-21T00:38:53.488Z,23.49
2023-04-21T00:39:53.521Z,23.52
2023-04-21T00:40:53.572Z,23.53
2023-04-21T00:41:53.591Z,23.50
2023-04-21T00:42:53.611Z,23.50
2023-04-21T00:43:53.649Z,23.50
2023-04-21T00:44:53.679Z,23.52
2023-04-21T00:45:53.715Z,23.50
2023-04-21T00:46:53.780Z,23.49
2023-04-21T00:47:53.814Z,23.52
2023-04-21T00:48:53.818Z,23.50
2023-04-21T00:49:53.849Z,23.49
2023-04-21T00:50:53.892Z,23.48
2023-04-21T00:51:53.928Z,23.49
2023-04-21T00:52:53.956Z,23.49
2023-04-21T00:53:53.987Z,23.48
2023-04-21T00:54:54.029Z,23.48
2023-04-21T00:55:54.065Z,23.50
2023-04-21T00:56:54.102Z,23.50
2023-04-21T00:57:54.146Z,23.46
2023-04-21T00:58:54.172Z,23.50
2023-04-21T00:59:54.206Z,23.49
2023-04-21T01:00:54.262Z,23.50
2023-04-21T01:01:54.331Z,23.50
2023-04-21T01:02:54.566Z,23.50
2023-04-21T01:03:54.459Z,23.49
2023-04-21T01:04:54.403Z,23.48
2023-04-21T01:05:54.457Z,23.49
2023-04-21T01:06:54.493Z,23.50
2023-04-21T01:07:54.508Z,23.48
2023-04-21T01:08:54.545Z,23.50
2023-04-21T01:09:54.586Z,23.49
2023-04-21T01:10:54.701Z,23.50
2023-04-21T01:11:54.836Z,23.49
2023-04-21T01:12:54.693Z,23.48
2023-04-21T01:13:54.732Z,23.50
2023-04-21T01:14:54.775Z,23.49
2023-04-21T01:15:54.818Z,23.48
2023-04-21T01:16:54.975Z,23.50
2023-04-21T01:17:54.950Z,23.50
2023-04-21T01:18:54.935Z,23.49
2023-04-21T01:19:54.971Z,23.52
2023-04-21T01:20:55.007Z,23.50
2023-04-21T01:21:55.046Z,23.48
2023-04-21T01:22:55.094Z,23.52
2023-04-21T01:23:55.137Z,23.49
2023-04-21T01:24:55.170Z,23.49
2023-04-21T01:25:55.201Z,23.49
2023-04-21T01:26:55.253Z,23.49
2023-04-21T01:27:55.280Z,23.49
2023-04-21T01:28:55.337Z,23.50
2023-04-21T01:29:55.363Z,23.49
2023-04-21T01:30:55.408Z,23.48
2023-04-21T01:31:55.468Z,23.49
2023-04-21T01:32:55.519Z,23.52
2023-04-21T01:33:55.514Z,23.49
2023-04-21T01:34:55.572Z,23.50
2023-04-21T01:35:55.590Z,23.49
2023-04-21T01:36:55.636Z,23.49
2023-04-21T01:37:55.666Z,23.49
2023-04-21T01:38:55.697Z,23.52
2023-04-21T01:39:55.732Z,23.49
2023-04-21T01:40:55.785Z,23.50
2023-04-21T01:41:55.976Z,23.50
2023-04-21T01:42:55.862Z,23.49
2023-04-21T01:43:55.915Z,23.48
2023-04-21T01:44:56.808Z,23.50
2023-04-21T01:45:56.028Z,23.46
2023-04-21T01:46:56.027Z,23.50
2023-04-21T01:47:56.115Z,23.50
2023-04-21T01:48:56.098Z,23.49
2023-04-21T01:49:56.135Z,23.48
2023-04-21T01:50:56.177Z,23.48
2023-04-21T01:51:56.346Z,23.46
2023-04-21T01:52:56.302Z,23.50
2023-04-21T01:53:56.324Z,23.48
2023-04-21T01:54:56.357Z,23.49
2023-04-21T01:55:56.396Z,23.49
2023-04-21T01:56:56.507Z,23.52
2023-04-21T01:57:56.470Z,23.48
2023-04-21T01:58:56.518Z,23.50
2023-04-21T01:59:56.536Z,23.49
2023-04-21T02:00:56.762Z,23.49
2023-04-21T02:01:56.758Z,23.48
2023-04-21T02:02:56.775Z,23.49
2023-04-21T02:03:56.777Z,23.49
2023-04-21T02:04:56.700Z,23.46
2023-04-21T02:05:56.742Z,23.49
2023-04-21T02:06:56.773Z,23.48
2023-04-21T02:07:56.816Z,23.48
2023-04-21T02:08:56.843Z,23.48
2023-04-21T02:09:56.879Z,23.46
2023-04-21T02:10:57.072Z,23.50
2023-04-21T02:11:56.992Z,23.48
2023-04-21T02:12:57.002Z,23.49
2023-04-21T02:13:57.999Z,23.49
2023-04-21T02:14:56.985Z,23.48
2023-04-21T02:16:09.753Z,23.46
2023-04-21T02:16:57.995Z,23.49
2023-04-21T02:17:57.057Z,23.49
2023-04-21T02:18:57.062Z,23.49
2023-04-21T02:19:56.987Z,23.50
2023-04-21T02:20:57.011Z,23.48
2023-04-21T02:21:57.010Z,23.49
2023-04-21T02:22:57.004Z,23.48
2023-04-21T02:23:57.015Z,23.49
2023-04-21T02:24:57.008Z,23.49
2023-04-21T02:25:57.005Z,23.48
2023-04-21T02:26:57.012Z,23.49
2023-04-21T02:27:56.999Z,23.49
2023-04-21T02:28:57.008Z,23.48
2023-04-21T02:29:57.075Z,23.46
2023-04-21T02:30:57.059Z,23.50
2023-04-21T02:32:02.854Z,23.49
2023-04-21T02:32:58.130Z,23.49
2023-04-21T02:33:57.063Z,23.49
2023-04-21T02:34:57.081Z,23.49
2023-04-21T02:35:57.075Z,23.49
2023-04-21T02:36:57.061Z,23.50
2023-04-21T02:37:57.069Z,23.48
2023-04-21T02:38:57.065Z,23.49
2023-04-21T02:39:57.085Z,23.50
2023-04-21T02:40:57.222Z,23.48
2023-04-21T02:41:57.088Z,23.48
2023-04-21T02:42:57.069Z,23.48
2023-04-21T02:43:57.078Z,23.46
2023-04-21T02:44:57.082Z,23.50
2023-04-21T02:45:57.132Z,23.48
2023-04-21T02:46:57.181Z,23.48
2023-04-21T02:47:57.301Z,23.48
2023-04-21T02:48:57.231Z,23.48
2023-04-21T02:49:57.280Z,23.49
2023-04-21T02:50:57.302Z,23.49
2023-04-21T02:51:57.361Z,23.48
2023-04-21T02:52:57.381Z,23.48
2023-04-21T02:53:57.421Z,23.48
2023-04-21T02:54:57.469Z,23.46
2023-04-21T02:55:57.504Z,23.48
2023-04-21T02:56:57.540Z,23.48
2023-04-21T02:57:57.573Z,23.49
2023-04-21T02:58:57.617Z,23.49
2023-04-21T02:59:57.664Z,23.48
2023-04-21T03:00:57.781Z,23.48
2023-04-21T03:01:57.760Z,23.48
2023-04-21T03:02:57.920Z,23.48
2023-04-21T03:03:57.985Z,23.50
2023-04-21T03:04:57.868Z,23.46
2023-04-21T03:05:57.907Z,23.48
2023-04-21T03:06:57.957Z,23.48
2023-04-21T03:07:58.014Z,23.49
2023-04-21T03:08:58.039Z,23.49
2023-04-21T03:09:58.151Z,23.49
2023-04-21T03:10:58.123Z,23.48
2023-04-21T03:11:58.148Z,23.48
2023-04-21T03:12:58.201Z,23.49
2023-04-21T03:13:58.217Z,23.49
2023-04-21T03:14:58.248Z,23.49
2023-04-21T03:15:58.283Z,23.50
2023-04-21T03:16:58.395Z,23.50
2023-04-21T03:17:58.382Z,23.48
2023-04-21T03:18:58.372Z,23.52
2023-04-21T03:19:58.416Z,23.53
2023-04-21T03:20:58.451Z,23.52
2023-04-21T03:21:58.497Z,23.52
2023-04-21T03:22:58.520Z,23.53
2023-04-21T03:23:58.561Z,23.55
2023-04-21T03:24:58.574Z,23.52
2023-04-21T03:25:58.612Z,23.52
2023-04-21T03:26:58.652Z,23.53
2023-04-21T03:27:58.678Z,23.56
2023-04-21T03:28:58.708Z,23.56
2023-04-21T03:29:58.737Z,23.55
2023-04-21T03:30:58.766Z,23.53
2023-04-21T03:31:58.839Z,23.55
2023-04-21T03:32:58.958Z,23.58
2023-04-21T03:33:58.849Z,23.56
2023-04-21T03:34:58.861Z,23.56
2023-04-21T03:35:58.903Z,23.55
2023-04-21T03:36:58.945Z,23.58
2023-04-21T03:37:58.943Z,23.58
2023-04-21T03:39:05.924Z,23.58
2023-04-21T03:39:59.976Z,23.55
2023-04-21T03:40:58.975Z,23.53
2023-04-21T03:41:58.977Z,23.55
2023-04-21T03:42:58.966Z,23.58
2023-04-21T03:43:59.007Z,23.56
2023-04-21T03:44:58.980Z,23.56
2023-04-21T03:45:59.112Z,23.58
2023-04-21T03:46:58.959Z,23.58
2023-04-21T03:47:58.979Z,23.59
2023-04-21T03:48:58.933Z,23.56
2023-04-21T03:49:58.927Z,23.55
2023-04-21T03:50:58.912Z,23.58
2023-04-21T03:51:58.914Z,23.59
2023-04-21T03:52:58.987Z,23.58
2023-04-21T03:53:58.903Z,23.58
2023-04-21T03:54:58.908Z,23.56
2023-04-21T03:55:58.914Z,23.58
2023-04-21T03:56:58.928Z,23.58
2023-04-21T03:57:58.958Z,23.58
2023-04-21T03:58:58.987Z,23.58
2023-04-21T03:59:59.030Z,23.58
2023-04-21T04:00:59.039Z,23.59
2023-04-21T04:01:59.153Z,23.58
2023-04-21T04:02:59.192Z,23.60
2023-04-21T04:03:59.338Z,23.58
2023-04-21T04:04:59.238Z,23.58
2023-04-21T04:05:59.170Z,23.60
2023-04-21T04:06:59.199Z,23.56
2023-04-21T04:07:59.220Z,23.58
2023-04-21T04:08:59.259Z,23.55
2023-04-21T04:09:59.275Z,23.58
2023-04-21T04:10:59.290Z,23.58
2023-04-21T04:11:59.350Z,23.59
2023-04-21T04:12:59.374Z,23.59
2023-04-21T04:13:59.377Z,23.58
2023-04-21T04:14:59.423Z,23.58
2023-04-21T04:15:59.476Z,23.58
2023-04-21T04:16:59.460Z,23.59
2023-04-21T04:17:59.547Z,23.56
2023-04-21T04:18:59.537Z,23.58
2023-04-21T04:19:59.535Z,23.58
2023-04-21T04:20:59.576Z,23.58
2023-04-21T04:21:59.607Z,23.59
2023-04-21T04:22:59.602Z,23.58
2023-04-21T04:23:59.636Z,23.59
2023-04-21T04:24:59.657Z,23.58
2023-04-21T04:25:59.677Z,23.59
2023-04-21T04:26:59.731Z,23.58
2023-04-21T04:27:59.728Z,23.59
2023-04-21T04:28:59.852Z,23.59
2023-04-21T04:29:59.770Z,23.56
2023-04-21T04:30:59.832Z,23.56
2023-04-21T04:31:59.839Z,23.56
2023-04-21T04:32:59.855Z,23.58
2023-04-21T04:33:59.873Z,23.56
2023-04-21T04:34:59.891Z,23.59
2023-04-21T04:35:59.914Z,23.55
2023-04-21T04:36:59.947Z,23.58
2023-04-21T04:37:59.976Z,23.59
2023-04-21T04:38:59.987Z,23.58
2023-04-21T04:40:00.082Z,23.58
2023-04-21T04:41:00.041Z,23.58
2023-04-21T04:42:00.061Z,23.59
2023-04-21T04:43:00.110Z,23.59
2023-04-21T04:44:01.123Z,23.58
2023-04-21T04:45:00.179Z,23.59
2023-04-21T04:46:00.188Z,23.59
2023-04-21T04:47:00.454Z,23.58
2023-04-21T04:48:00.291Z,23.58
2023-04-21T04:49:00.238Z,23.56
2023-04-21T04:50:00.268Z,23.60
2023-04-21T04:51:00.273Z,23.60
2023-04-21T04:52:00.318Z,23.62
2023-04-21T04:53:00.353Z,23.59
2023-04-21T04:54:00.364Z,23.59
2023-04-21T04:55:00.386Z,23.59
2023-04-21T04:56:00.402Z,23.59
2023-04-21T04:57:00.444Z,23.60
2023-04-21T04:58:00.464Z,23.59
2023-04-21T04:59:00.505Z,23.60
2023-04-21T05:00:00.514Z,23.60
2023-04-21T05:01:00.511Z,23.60
2023-04-21T05:02:00.622Z,23.62
2023-04-21T05:03:00.720Z,23.60
2023-04-21T05:04:00.711Z,23.60
2023-04-21T05:05:00.661Z,23.59
2023-04-21T05:06:00.632Z,23.59
2023-04-21T05:07:00.657Z,23.56
2023-04-21T05:08:00.675Z,23.56
2023-04-21T05:09:00.768Z,23.58
2023-04-21T05:10:00.714Z,23.59
2023-04-21T05:11:00.738Z,23.60
2023-04-21T05:12:00.744Z,23.59
2023-04-21T05:13:00.779Z,23.65
2023-04-21T05:14:00.808Z,23.62
2023-04-21T05:15:01.119Z,23.53
2023-04-21T05:16:00.872Z,23.56
2023-04-21T05:17:01.007Z,23.58
2023-04-21T05:18:00.946Z,23.59
2023-04-21T05:19:00.961Z,23.59
2023-04-21T05:20:01.005Z,23.59
2023-04-21T05:21:01.010Z,23.60
2023-04-21T05:22:01.044Z,23.58
2023-04-21T05:23:01.054Z,23.59
2023-04-21T05:24:01.200Z,23.52
2023-04-21T05:25:01.084Z,23.50
2023-04-21T05:26:03.406Z,23.48
2023-04-21T05:27:01.103Z,23.45
2023-04-21T05:28:01.086Z,23.48
2023-04-21T05:29:01.089Z,23.48
2023-04-21T05:30:01.149Z,23.49
2023-04-21T05:31:01.087Z,23.49
2023-04-21T05:32:01.157Z,23.49
2023-04-21T05:33:01.085Z,23.52
2023-04-21T05:34:01.080Z,23.52
2023-04-21T05:35:01.814Z,23.52
2023-04-21T05:36:01.031Z,23.55
2023-04-21T05:37:02.047Z,23.52
2023-04-21T05:38:01.035Z,23.55
2023-04-21T05:39:00.992Z,23.58
2023-04-21T05:40:00.988Z,23.59
2023-04-21T05:41:01.724Z,23.58
2023-04-21T05:42:01.072Z,23.62
2023-04-21T05:43:00.953Z,23.62
2023-04-21T05:44:00.974Z,23.59
2023-04-21T05:45:01.839Z,23.60
2023-04-21T05:46:00.938Z,23.62
2023-04-21T05:47:00.910Z,23.66
2023-04-21T05:48:00.957Z,23.63
2023-04-21T05:49:00.903Z,23.63
2023-04-21T05:50:00.924Z,23.63
2023-04-21T05:51:00.864Z,23.63
2023-04-21T05:52:01.387Z,23.65
2023-04-21T05:53:00.857Z,23.66
2023-04-21T05:54:00.966Z,23.65
2023-04-21T05:55:00.827Z,23.66
2023-04-21T05:56:00.814Z,23.67
2023-04-21T05:57:00.829Z,23.66
2023-04-21T05:58:00.824Z,23.65
2023-04-21T05:59:00.809Z,23.67
2023-04-21T06:00:01.101Z,23.69
2023-04-21T06:01:00.793Z,23.65
2023-04-21T06:02:00.821Z,23.66
2023-04-21T06:03:00.874Z,23.67
2023-04-21T06:04:00.978Z,23.66
2023-04-21T06:05:01.774Z,23.67
2023-04-21T06:06:00.824Z,23.67
2023-04-21T06:07:00.749Z,23.69
2023-04-21T06:08:00.749Z,23.67
2023-04-21T06:09:00.727Z,23.66
2023-04-21T06:10:00.736Z,23.65
2023-04-21T06:11:00.718Z,23.69
2023-04-21T06:12:00.714Z,23.69
2023-04-21T06:13:00.707Z,23.69
2023-04-21T06:14:00.713Z,23.67
2023-04-21T06:15:01.106Z,23.67
2023-04-21T06:16:00.705Z,23.70
2023-04-21T06:17:00.702Z,23.67
2023-04-21T06:18:00.723Z,23.67
2023-04-21T06:19:00.699Z,23.66
2023-04-21T06:20:00.694Z,23.72
2023-04-21T06:21:00.712Z,23.62
2023-04-21T06:22:00.693Z,23.65
2023-04-21T06:23:00.685Z,23.65
2023-04-21T06:24:00.856Z,23.65
2023-04-21T06:25:00.749Z,23.58
2023-04-21T06:26:00.732Z,23.60
2023-04-21T06:27:00.739Z,23.66
2023-04-21T06:28:00.783Z,23.69
2023-04-21T06:29:00.800Z,23.73
2023-04-21T06:30:01.393Z,23.73
2023-04-21T06:31:01.725Z,23.74
2023-04-21T06:32:00.877Z,23.74
2023-04-21T06:33:01.040Z,23.73
2023-04-21T06:34:00.918Z,23.74
2023-04-21T06:35:00.955Z,23.74
2023-04-21T06:36:01.855Z,23.76
2023-04-21T06:37:00.997Z,23.76
2023-04-21T06:38:01.020Z,23.76
2023-04-21T06:39:02.808Z,23.74
2023-04-21T06:40:01.070Z,23.74
2023-04-21T06:41:01.071Z,23.76
2023-04-21T06:42:01.107Z,23.74
2023-04-21T06:43:01.139Z,23.73
2023-04-21T06:44:01.142Z,23.76
2023-04-21T06:45:01.843Z,23.74
2023-04-21T06:46:01.200Z,23.73
2023-04-21T06:47:01.271Z,23.74
2023-04-21T06:48:01.212Z,23.73
2023-04-21T06:49:01.197Z,23.74
2023-04-21T06:50:03.821Z,23.73
2023-04-21T06:51:01.427Z,23.73
2023-04-21T06:52:01.457Z,23.74
2023-04-21T06:53:01.464Z,23.74
2023-04-21T06:54:01.716Z,23.74
2023-04-21T06:55:05.063Z,23.73
2023-04-21T06:56:01.496Z,23.70
2023-04-21T06:57:01.523Z,23.69
2023-04-21T06:58:01.518Z,23.67
2023-04-21T06:59:09.373Z,23.65
2023-04-21T07:00:01.506Z,23.62
2023-04-21T07:01:01.501Z,23.65
2023-04-21T07:02:01.499Z,23.63
2023-04-21T07:03:01.650Z,23.62
2023-04-21T07:04:01.587Z,23.65
2023-04-21T07:05:01.475Z,23.67
2023-04-21T07:06:01.624Z,23.66
2023-04-21T07:07:03.106Z,23.66
2023-04-21T07:08:01.447Z,23.67
2023-04-21T07:09:03.384Z,23.67
2023-04-21T07:10:01.424Z,23.69
2023-04-21T07:11:01.420Z,23.69
2023-04-21T07:12:01.413Z,23.69
2023-04-21T07:13:01.417Z,23.70
2023-04-21T07:14:01.430Z,23.69
2023-04-21T07:15:01.426Z,23.69
2023-04-21T07:16:03.323Z,23.69
2023-04-21T07:17:01.424Z,23.72
2023-04-21T07:18:01.506Z,23.69
2023-04-21T07:19:01.394Z,23.72
2023-04-21T07:20:01.435Z,23.73
2023-04-21T07:21:01.436Z,23.70
2023-04-21T07:22:02.454Z,23.59
2023-04-21T07:23:02.301Z,23.52
2023-04-21T07:24:01.575Z,23.60
2023-04-21T07:25:01.428Z,23.65
2023-04-21T07:26:01.410Z,23.66
2023-04-21T07:27:01.510Z,23.72
2023-04-21T07:28:01.400Z,23.73
2023-04-21T07:29:01.388Z,23.73
2023-04-21T07:30:01.384Z,23.76
2023-04-21T07:31:03.008Z,23.77
2023-04-21T07:32:01.416Z,23.79
2023-04-21T07:33:02.420Z,23.79
2023-04-21T07:34:01.366Z,23.77
2023-04-21T07:35:01.368Z,23.80
2023-04-21T07:36:02.331Z,23.80
2023-04-21T07:37:01.361Z,23.79
2023-04-21T07:38:01.354Z,23.79
2023-04-21T07:39:02.311Z,23.77
2023-04-21T07:40:01.479Z,23.79
2023-04-21T07:41:01.388Z,23.80
2023-04-21T07:42:01.438Z,23.79
2023-04-21T07:43:01.387Z,23.80
2023-04-21T07:44:01.382Z,23.77
2023-04-21T07:45:02.426Z,23.79
2023-04-21T07:46:01.373Z,23.79
2023-04-21T07:47:01.363Z,23.77
2023-04-21T07:48:01.458Z,23.77
2023-04-21T07:49:02.907Z,23.77
2023-04-21T07:50:01.588Z,23.77
2023-04-21T07:51:01.573Z,23.79
2023-04-21T07:52:01.585Z,23.76
2023-04-21T07:53:01.806Z,23.76
2023-04-21T07:54:01.646Z,23.76
2023-04-21T07:55:02.272Z,23.76
2023-04-21T07:56:01.782Z,23.74
2023-04-21T07:57:01.772Z,23.76
2023-04-21T07:58:01.819Z,23.76
2023-04-21T07:59:01.797Z,23.73
2023-04-21T08:00:01.830Z,23.70
2023-04-21T08:01:01.882Z,23.73
2023-04-21T08:02:01.937Z,23.72
2023-04-21T08:03:02.002Z,23.70
2023-04-21T08:04:02.953Z,23.73
2023-04-21T08:05:02.025Z,23.74
2023-04-21T08:06:02.076Z,23.73
2023-04-21T08:07:02.987Z,23.77
2023-04-21T08:08:02.967Z,23.76
2023-04-21T08:09:01.954Z,23.77
2023-04-21T08:10:02.795Z,23.72
2023-04-21T08:11:02.943Z,23.76
2023-04-21T08:12:01.970Z,23.76
2023-04-21T08:13:01.931Z,23.79
2023-04-21T08:14:01.936Z,23.80
2023-04-21T08:15:01.906Z,23.74
2023-04-21T08:16:02.013Z,23.79
2023-04-21T08:17:01.918Z,23.81
2023-04-21T08:18:04.843Z,23.77
2023-04-21T08:19:01.884Z,23.81
2023-04-21T08:20:01.831Z,23.83
2023-04-21T08:21:01.811Z,23.86
2023-04-21T08:22:01.802Z,23.86
2023-04-21T08:23:01.984Z,23.84
2023-04-21T08:24:01.784Z,23.84
2023-04-21T08:25:01.759Z,23.83
2023-04-21T08:26:01.754Z,23.80
2023-04-21T08:27:01.748Z,23.84
2023-04-21T08:28:01.732Z,23.87
2023-04-21T08:29:04.401Z,23.90
2023-04-21T08:30:01.708Z,23.91
2023-04-21T08:31:01.753Z,23.94
2023-04-21T08:32:01.795Z,23.91
2023-04-21T08:33:01.707Z,23.93
2023-04-21T08:34:03.047Z,23.90
2023-04-21T08:35:01.658Z,23.90
2023-04-21T08:36:05.502Z,23.91
2023-04-21T08:37:02.630Z,23.88
2023-04-21T08:38:01.617Z,23.90
2023-04-21T08:39:01.630Z,23.91
2023-04-21T08:40:01.627Z,23.90
2023-04-21T08:41:02.306Z,23.88
2023-04-21T08:42:01.552Z,23.90
2023-04-21T08:43:01.536Z,23.90
2023-04-21T08:44:01.526Z,23.90
2023-04-21T08:45:01.542Z,23.88
2023-04-21T08:46:01.522Z,23.86
2023-04-21T08:47:01.492Z,23.86
2023-04-21T08:48:01.566Z,23.86
2023-04-21T08:49:01.466Z,23.84
2023-04-21T08:50:01.462Z,23.83
2023-04-21T08:51:01.448Z,23.83
2023-04-21T08:52:01.459Z,23.86
2023-04-21T08:53:01.596Z,23.84
2023-04-21T08:54:01.429Z,23.84
2023-04-21T08:55:01.427Z,23.80
2023-04-21T08:56:10.693Z,23.81
2023-04-21T08:57:13.937Z,23.81
2023-04-21T08:58:02.405Z,23.81
2023-04-21T08:59:01.398Z,23.79
2023-04-21T09:00:01.391Z,23.79
2023-04-21T09:01:02.397Z,23.80
2023-04-21T09:02:01.502Z,23.80
2023-04-21T09:03:02.539Z,23.77
2023-04-21T09:04:01.437Z,23.79
2023-04-21T09:05:01.674Z,23.77
2023-04-21T09:06:01.774Z,23.80
2023-04-21T09:07:01.329Z,23.79
2023-04-21T09:08:01.320Z,23.79
2023-04-21T09:09:01.307Z,23.77
2023-04-21T09:10:01.330Z,23.79
2023-04-21T09:11:01.309Z,23.76
2023-04-21T09:12:01.283Z,23.79
2023-04-21T09:13:01.279Z,23.77
2023-04-21T09:14:01.284Z,23.79
2023-04-21T09:15:01.251Z,23.76
2023-04-21T09:16:01.251Z,23.70
2023-04-21T09:17:01.328Z,23.70
2023-04-21T09:18:01.772Z,23.63
2023-04-21T09:19:01.816Z,23.59
2023-04-21T09:20:01.246Z,23.53
2023-04-21T09:21:01.273Z,23.59
2023-04-21T09:22:01.301Z,23.66
2023-04-21T09:23:01.302Z,23.72
2023-04-21T09:24:01.217Z,23.76
2023-04-21T09:25:01.290Z,23.80
2023-04-21T09:26:01.197Z,23.81
2023-04-21T09:27:01.190Z,23.83
2023-04-21T09:28:01.268Z,23.87
2023-04-21T09:29:01.169Z,23.87
2023-04-21T09:30:01.160Z,23.90
2023-04-21T09:31:01.181Z,23.90
2023-04-21T09:32:02.858Z,23.91
2023-04-21T09:33:02.376Z,23.93
2023-04-21T09:34:01.691Z,23.91
2023-04-21T09:35:01.131Z,23.91
2023-04-21T09:36:01.215Z,23.93
2023-04-21T09:37:01.121Z,23.93
2023-04-21T09:38:01.134Z,23.93
2023-04-21T09:39:20.441Z,23.93
2023-04-21T09:41:01.082Z,23.93
2023-04-21T09:42:01.867Z,23.93
2023-04-21T09:43:01.091Z,23.91
2023-04-21T09:44:01.093Z,23.91
2023-04-21T09:46:01.088Z,23.88
2023-04-21T09:47:01.084Z,23.90
2023-04-21T09:48:01.153Z,23.91
2023-04-21T09:49:01.079Z,23.88
2023-04-21T09:50:01.075Z,23.88
2023-04-21T09:51:25.524Z,23.88
2023-04-21T09:53:01.077Z,23.90
2023-04-21T09:54:01.049Z,23.87
2023-04-21T09:55:01.054Z,23.88
2023-04-21T09:56:01.105Z,23.88
2023-04-21T09:57:01.056Z,23.86
2023-04-21T09:58:01.053Z,23.86
2023-04-21T09:59:01.038Z,23.87
2023-04-21T10:00:02.847Z,23.87
2023-04-21T10:01:03.932Z,23.88
2023-04-21T10:02:01.467Z,23.86
2023-04-21T10:03:01.238Z,23.86
2023-04-21T10:04:01.265Z,23.84
2023-04-21T10:05:01.322Z,23.81
2023-04-21T10:06:01.079Z,23.86
2023-04-21T10:07:01.041Z,23.77
2023-04-21T10:08:01.191Z,23.80
2023-04-21T10:09:01.111Z,23.86
2023-04-21T10:10:01.061Z,23.88
2023-04-21T10:11:01.091Z,23.88
2023-04-21T10:12:01.063Z,23.87
2023-04-21T10:13:01.055Z,23.84
2023-04-21T10:14:01.067Z,23.88
2023-04-21T10:15:01.153Z,23.84
2023-04-21T10:16:01.122Z,23.80
2023-04-21T10:17:01.057Z,23.83
2023-04-21T10:18:01.097Z,23.84
2023-04-21T10:19:01.121Z,23.91
2023-04-21T10:20:01.075Z,23.88
2023-04-21T10:21:01.056Z,23.93
2023-04-21T10:22:01.048Z,23.94
2023-04-21T10:23:01.063Z,23.97
2023-04-21T10:24:01.036Z,23.96
2023-04-21T10:25:01.045Z,23.99
2023-04-21T10:26:01.030Z,23.99
2023-04-21T10:27:01.032Z,24.00
2023-04-21T10:28:01.038Z,24.00
2023-04-21T10:29:01.110Z,24.00
2023-04-21T10:30:01.209Z,23.97
2023-04-21T10:31:01.017Z,24.00
2023-04-21T10:32:01.094Z,23.99
2023-04-21T10:33:01.049Z,24.01
2023-04-21T10:34:01.007Z,24.00
2023-04-21T10:35:00.982Z,24.01
2023-04-21T10:36:00.997Z,24.00
2023-04-21T10:37:01.019Z,24.01
2023-04-21T10:38:00.980Z,24.01
2023-04-21T10:39:00.974Z,24.01
2023-04-21T10:40:00.985Z,23.99
2023-04-21T10:41:00.961Z,23.99
2023-04-21T10:42:01.020Z,24.00
2023-04-21T10:43:00.953Z,24.01
2023-04-21T10:44:01.950Z,24.00
2023-04-21T10:45:01.189Z,24.03
2023-04-21T10:46:00.928Z,24.03
2023-04-21T10:47:00.968Z,24.01
2023-04-21T10:48:00.916Z,24.00
2023-04-21T10:49:00.909Z,24.00
2023-04-21T10:50:00.926Z,24.00
2023-04-21T10:51:01.802Z,23.99
2023-04-21T10:52:00.885Z,23.99
2023-04-21T10:53:00.880Z,24.00
2023-04-21T10:54:00.872Z,23.97
2023-04-21T10:55:00.876Z,24.00
2023-04-21T10:56:00.851Z,23.97
2023-04-21T10:57:00.853Z,23.96
2023-04-21T10:58:00.845Z,23.97
2023-04-21T10:59:00.846Z,23.94
2023-04-21T11:00:01.212Z,23.96
2023-04-21T11:01:00.858Z,23.97
2023-04-21T11:02:00.913Z,23.97
2023-04-21T11:03:00.970Z,23.96
2023-04-21T11:04:00.896Z,23.96
2023-04-21T11:05:01.051Z,23.94
2023-04-21T11:06:00.881Z,23.97
2023-04-21T11:07:00.814Z,23.94
2023-04-21T11:08:00.831Z,23.96
2023-04-21T11:09:00.952Z,23.96
2023-04-21T11:10:00.852Z,23.97
2023-04-21T11:11:00.916Z,23.97
2023-04-21T11:12:00.874Z,23.99
2023-04-21T11:13:00.894Z,23.99
2023-04-21T11:14:00.914Z,24.00
2023-04-21T11:15:01.415Z,24.00
2023-04-21T11:16:00.980Z,23.99
2023-04-21T11:17:01.072Z,24.00
2023-04-21T11:18:00.988Z,24.00
2023-04-21T11:19:00.987Z,23.99
2023-04-21T11:20:01.001Z,24.00
2023-04-21T11:21:01.028Z,24.01
2023-04-21T11:22:01.052Z,24.00
2023-04-21T11:23:01.074Z,24.01
2023-04-21T11:24:01.079Z,24.00
2023-04-21T11:25:02.053Z,24.01
2023-04-21T11:26:01.110Z,24.00
2023-04-21T11:27:01.167Z,24.00
2023-04-21T11:28:01.159Z,24.00
2023-04-21T11:29:01.181Z,23.97
2023-04-21T11:30:01.202Z,23.97
2023-04-21T11:31:01.269Z,23.99
2023-04-21T11:32:01.221Z,23.99
2023-04-21T11:33:01.262Z,23.97
2023-04-21T11:34:01.265Z,23.99
2023-04-21T11:35:01.276Z,23.99
2023-04-21T11:36:01.290Z,23.97
2023-04-21T11:37:01.313Z,23.96
2023-04-21T11:38:01.320Z,23.96
2023-04-21T11:39:01.333Z,23.96
2023-04-21T11:40:01.367Z,23.97
2023-04-21T11:41:01.368Z,23.93
2023-04-21T11:42:01.405Z,23.96
2023-04-21T11:43:01.410Z,23.94
2023-04-21T11:44:01.427Z,23.96
2023-04-21T11:45:01.454Z,23.93
2023-04-21T11:46:01.476Z,23.94
2023-04-21T11:47:01.561Z,23.94
2023-04-21T11:48:01.583Z,23.96
2023-04-21T11:49:01.536Z,23.96
2023-04-21T11:50:01.542Z,23.96
2023-04-21T11:51:01.541Z,23.94
2023-04-21T11:52:01.565Z,23.96
2023-04-21T11:53:01.568Z,23.96
2023-04-21T11:54:01.585Z,23.96
2023-04-21T11:55:01.628Z,23.96
2023-04-21T11:56:01.604Z,23.96
2023-04-21T11:57:02.885Z,23.97
2023-04-21T11:58:01.649Z,23.97
2023-04-21T11:59:01.643Z,23.96
2023-04-21T12:00:01.738Z,23.96
2023-04-21T12:01:01.647Z,23.96
2023-04-21T12:02:01.846Z,23.96
2023-04-21T12:03:01.733Z,23.93
2023-04-21T12:04:01.816Z,23.94
2023-04-21T12:05:01.774Z,23.91
2023-04-21T12:06:01.699Z,23.90
2023-04-21T12:07:01.673Z,23.93
2023-04-21T12:08:01.662Z,23.91
2023-04-21T12:09:01.657Z,23.93
2023-04-21T12:10:01.778Z,23.93
2023-04-21T12:11:01.682Z,23.90
2023-04-21T12:12:01.709Z,23.90
2023-04-21T12:13:01.712Z,23.90
2023-04-21T12:14:01.747Z,23.91
2023-04-21T12:15:01.777Z,23.91
2023-04-21T12:16:01.781Z,23.91
2023-04-21T12:17:01.783Z,23.91
2023-04-21T12:18:01.812Z,23.93
2023-04-21T12:19:01.786Z,23.96
2023-04-21T12:20:01.811Z,23.94
2023-04-21T12:21:01.792Z,23.94
2023-04-21T12:22:01.805Z,23.93
2023-04-21T12:23:01.815Z,23.96
2023-04-21T12:24:03.805Z,23.94
2023-04-21T12:25:01.787Z,23.97
2023-04-21T12:26:01.790Z,23.99
2023-04-21T12:27:01.766Z,24.00
2023-04-21T12:28:01.761Z,23.99
2023-04-21T12:29:01.752Z,23.97
2023-04-21T12:30:01.746Z,24.01
2023-04-21T12:31:01.730Z,24.01
2023-04-21T12:32:01.823Z,24.03
2023-04-21T12:33:01.886Z,24.04
2023-04-21T12:34:01.719Z,24.05
2023-04-21T12:35:01.706Z,24.04
2023-04-21T12:36:01.689Z,24.01
2023-04-21T12:37:01.668Z,24.01
2023-04-21T12:38:01.675Z,24.03
2023-04-21T12:39:01.646Z,24.03
2023-04-21T12:40:01.635Z,24.01
2023-04-21T12:41:01.653Z,24.01
2023-04-21T12:42:01.626Z,24.00
2023-04-21T12:43:01.623Z,23.99
2023-04-21T12:44:01.602Z,24.01
2023-04-21T12:45:01.595Z,23.99
2023-04-21T12:46:01.617Z,23.99
2023-04-21T12:47:01.570Z,23.99
2023-04-21T12:48:01.621Z,23.94
2023-04-21T12:49:01.552Z,23.97
2023-04-21T12:50:01.877Z,23.97
2023-04-21T12:51:01.576Z,23.96
2023-04-21T12:52:01.594Z,23.96
2023-04-21T12:53:01.596Z,23.97
2023-04-21T12:54:01.599Z,23.97
2023-04-21T12:55:01.580Z,24.00
2023-04-21T12:56:05.143Z,23.99